Terminal Aerodrome Forecast
Issued by NWS

Home | Current Version | Previous Version | Text Only | Print | Product List | Glossary On
Versions: 1 2 3 4 5 6 7 8 9 10 11 12 13 14 15 16 17 18 19 20 21 22 23 24 25 26 27 28 29 30 31 32 33
000
FTUS46 KOTX 260155 AAA
TAFCOE
TAF AMD
KCOE 260155Z 2602/2624 VRB04KT P6SM SCT080 BKN110
     FM260600 14004KT P6SM -SHRA BKN060 OVC090
     FM261200 14003KT P6SM SCT070 BKN100
     FM261900 23005KT P6SM -SHRA SCT060 BKN100
      AMD LTD TO CLD AND VIS=

USA.gov is the U.S. government's official web portal to all federal, state and local government web resources and services.